sensor_id;sensor_type;location;lat;lon;timestamp;P1;durP1;ratioP1;P2;durP2;ratioP2
44578;SDS011;37422;51.402;0.016;2022-10-31T00:01:18;23.02;;;8.98;;
44578;SDS011;37422;51.402;0.016;2022-10-31T00:03:46;22.20;;;7.65;;
44578;SDS011;37422;51.402;0.016;2022-10-31T00:06:15;23.08;;;7.93;;
44578;SDS011;37422;51.402;0.016;2022-10-31T00:08:46;26.08;;;8.60;;
44578;SDS011;37422;51.402;0.016;2022-10-31T00:11:14;22.55;;;7.25;;
44578;SDS011;37422;51.402;0.016;2022-10-31T00:13:42;27.92;;;7.18;;
44578;SDS011;37422;51.402;0.016;2022-10-31T00:16:13;25.88;;;6.75;;
44578;SDS011;37422;51.402;0.016;2022-10-31T00:18:43;21.73;;;7.03;;
44578;SDS011;37422;51.402;0.016;2022-10-31T00:21:10;22.05;;;7.13;;
44578;SDS011;37422;51.402;0.016;2022-10-31T00:23:38;21.25;;;7.15;;
44578;SDS011;37422;51.402;0.016;2022-10-31T00:26:06;21.05;;;6.55;;
44578;SDS011;37422;51.402;0.016;2022-10-31T00:28:33;21.08;;;7.38;;
44578;SDS011;37422;51.402;0.016;2022-10-31T00:31:01;22.52;;;5.97;;
44578;SDS011;37422;51.402;0.016;2022-10-31T00:33:32;24.00;;;6.72;;
44578;SDS011;37422;51.402;0.016;2022-10-31T00:36:01;16.02;;;5.93;;
44578;SDS011;37422;51.402;0.016;2022-10-31T00:38:30;21.58;;;6.78;;
44578;SDS011;37422;51.402;0.016;2022-10-31T00:40:57;21.25;;;7.18;;
44578;SDS011;37422;51.402;0.016;2022-10-31T00:43:25;16.42;;;5.47;;
44578;SDS011;37422;51.402;0.016;2022-10-31T00:45:53;25.42;;;6.40;;
44578;SDS011;37422;51.402;0.016;2022-10-31T00:48:23;23.08;;;6.60;;
44578;SDS011;37422;51.402;0.016;2022-10-31T00:50:52;19.80;;;6.38;;
44578;SDS011;37422;51.402;0.016;2022-10-31T00:53:20;15.65;;;5.63;;
44578;SDS011;37422;51.402;0.016;2022-10-31T00:55:47;22.52;;;5.82;;
44578;SDS011;37422;51.402;0.016;2022-10-31T00:58:15;25.73;;;6.45;;
44578;SDS011;37422;51.402;0.016;2022-10-31T01:00:43;17.00;;;5.63;;
44578;SDS011;37422;51.402;0.016;2022-10-31T01:03:16;15.15;;;5.22;;
44578;SDS011;37422;51.402;0.016;2022-10-31T01:05:44;17.38;;;5.97;;
44578;SDS011;37422;51.402;0.016;2022-10-31T01:08:12;30.60;;;7.32;;
44578;SDS011;37422;51.402;0.016;2022-10-31T01:10:39;32.53;;;7.57;;
44578;SDS011;37422;51.402;0.016;2022-10-31T01:13:08;20.52;;;7.63;;
44578;SDS011;37422;51.402;0.016;2022-10-31T01:15:36;18.13;;;7.13;;
44578;SDS011;37422;51.402;0.016;2022-10-31T01:18:07;19.80;;;5.95;;
44578;SDS011;37422;51.402;0.016;2022-10-31T01:20:34;27.15;;;7.40;;
44578;SDS011;37422;51.402;0.016;2022-10-31T01:23:02;16.95;;;6.93;;
44578;SDS011;37422;51.402;0.016;2022-10-31T01:25:30;21.95;;;6.88;;
44578;SDS011;37422;51.402;0.016;2022-10-31T01:27:57;16.85;;;6.30;;
44578;SDS011;37422;51.402;0.016;2022-10-31T01:30:25;20.92;;;6.82;;
44578;SDS011;37422;51.402;0.016;2022-10-31T01:32:53;15.25;;;5.53;;
44578;SDS011;37422;51.402;0.016;2022-10-31T01:35:21;19.52;;;6.18;;
44578;SDS011;37422;51.402;0.016;2022-10-31T01:37:48;18.65;;;5.00;;
44578;SDS011;37422;51.402;0.016;2022-10-31T01:40:16;12.45;;;4.93;;
44578;SDS011;37422;51.402;0.016;2022-10-31T01:42:43;22.52;;;6.43;;
44578;SDS011;37422;51.402;0.016;2022-10-31T01:45:11;15.77;;;6.50;;
44578;SDS011;37422;51.402;0.016;2022-10-31T01:47:45;12.95;;;5.35;;
44578;SDS011;37422;51.402;0.016;2022-10-31T01:50:22;15.25;;;5.80;;
44578;SDS011;37422;51.402;0.016;2022-10-31T01:52:57;17.90;;;6.20;;
44578;SDS011;37422;51.402;0.016;2022-10-31T01:55:28;16.90;;;6.00;;
44578;SDS011;37422;51.402;0.016;2022-10-31T01:58:02;24.38;;;7.93;;
44578;SDS011;37422;51.402;0.016;2022-10-31T02:00:34;23.75;;;8.00;;
44578;SDS011;37422;51.402;0.016;2022-10-31T02:03:02;24.92;;;8.20;;
44578;SDS011;37422;51.402;0.016;2022-10-31T02:05:30;18.27;;;6.40;;
44578;SDS011;37422;51.402;0.016;2022-10-31T02:10:49;27.92;;;8.10;;
44578;SDS011;37422;51.402;0.016;2022-10-31T02:13:17;38.33;;;8.80;;
44578;SDS011;37422;51.402;0.016;2022-10-31T02:15:49;26.33;;;8.68;;
44578;SDS011;37422;51.402;0.016;2022-10-31T02:18:27;32.03;;;9.45;;
44578;SDS011;37422;51.402;0.016;2022-10-31T02:21:11;30.23;;;8.95;;
44578;SDS011;37422;51.402;0.016;2022-10-31T02:32:11;32.33;;;9.20;;
44578;SDS011;37422;51.402;0.016;2022-10-31T02:34:58;34.15;;;8.25;;
44578;SDS011;37422;51.402;0.016;2022-10-31T02:40:25;39.08;;;10.07;;
44578;SDS011;37422;51.402;0.016;2022-10-31T02:43:18;27.58;;;8.07;;
44578;SDS011;37422;51.402;0.016;2022-10-31T02:48:51;31.80;;;9.05;;
44578;SDS011;37422;51.402;0.016;2022-10-31T02:51:24;22.67;;;7.80;;
44578;SDS011;37422;51.402;0.016;2022-10-31T02:53:52;36.50;;;8.77;;
44578;SDS011;37422;51.402;0.016;2022-10-31T02:56:20;24.38;;;7.32;;
44578;SDS011;37422;51.402;0.016;2022-10-31T02:58:49;44.80;;;10.80;;
44578;SDS011;37422;51.402;0.016;2022-10-31T03:04:44;35.92;;;7.65;;
44578;SDS011;37422;51.402;0.016;2022-10-31T03:07:28;31.35;;;10.63;;
44578;SDS011;37422;51.402;0.016;2022-10-31T03:13:07;27.17;;;8.27;;
44578;SDS011;37422;51.402;0.016;2022-10-31T03:15:51;35.72;;;8.98;;
44578;SDS011;37422;51.402;0.016;2022-10-31T03:18:26;36.85;;;9.63;;
44578;SDS011;37422;51.402;0.016;2022-10-31T03:21:12;35.95;;;7.15;;
44578;SDS011;37422;51.402;0.016;2022-10-31T03:23:43;28.77;;;7.78;;
44578;SDS011;37422;51.402;0.016;2022-10-31T03:26:19;27.85;;;7.90;;
44578;SDS011;37422;51.402;0.016;2022-10-31T03:28:49;30.80;;;8.00;;
44578;SDS011;37422;51.402;0.016;2022-10-31T03:31:23;29.95;;;7.60;;
44578;SDS011;37422;51.402;0.016;2022-10-31T03:33:57;42.45;;;7.72;;
44578;SDS011;37422;51.402;0.016;2022-10-31T03:36:32;31.35;;;8.15;;
44578;SDS011;37422;51.402;0.016;2022-10-31T03:39:07;31.02;;;8.88;;
44578;SDS011;37422;51.402;0.016;2022-10-31T03:41:40;32.17;;;6.80;;
44578;SDS011;37422;51.402;0.016;2022-10-31T03:44:16;37.53;;;7.18;;
44578;SDS011;37422;51.402;0.016;2022-10-31T03:46:55;29.58;;;7.00;;
44578;SDS011;37422;51.402;0.016;2022-10-31T03:49:23;30.10;;;5.43;;
44578;SDS011;37422;51.402;0.016;2022-10-31T03:52:06;28.02;;;6.22;;
44578;SDS011;37422;51.402;0.016;2022-10-31T03:54:42;37.60;;;7.43;;
44578;SDS011;37422;51.402;0.016;2022-10-31T04:00:00;27.15;;;5.55;;
44578;SDS011;37422;51.402;0.016;2022-10-31T04:03:05;34.63;;;8.07;;
44578;SDS011;37422;51.402;0.016;2022-10-31T04:05:46;29.90;;;7.93;;
44578;SDS011;37422;51.402;0.016;2022-10-31T04:08:17;38.53;;;8.55;;
44578;SDS011;37422;51.402;0.016;2022-10-31T04:10:54;37.92;;;8.57;;
44578;SDS011;37422;51.402;0.016;2022-10-31T04:13:29;30.25;;;7.88;;
44578;SDS011;37422;51.402;0.016;2022-10-31T04:16:04;31.30;;;7.97;;
44578;SDS011;37422;51.402;0.016;2022-10-31T04:18:40;29.40;;;6.68;;
44578;SDS011;37422;51.402;0.016;2022-10-31T04:21:08;30.50;;;7.80;;
44578;SDS011;37422;51.402;0.016;2022-10-31T04:23:36;26.30;;;5.88;;
44578;SDS011;37422;51.402;0.016;2022-10-31T04:26:14;31.20;;;8.40;;
44578;SDS011;37422;51.402;0.016;2022-10-31T04:28:43;34.58;;;8.85;;
44578;SDS011;37422;51.402;0.016;2022-10-31T04:31:12;22.90;;;7.05;;
44578;SDS011;37422;51.402;0.016;2022-10-31T04:33:42;32.53;;;6.57;;
44578;SDS011;37422;51.402;0.016;2022-10-31T04:36:09;31.88;;;6.75;;
44578;SDS011;37422;51.402;0.016;2022-10-31T04:38:37;30.52;;;7.47;;
44578;SDS011;37422;51.402;0.016;2022-10-31T04:41:17;31.92;;;7.78;;
44578;SDS011;37422;51.402;0.016;2022-10-31T04:43:52;37.00;;;9.18;;
44578;SDS011;37422;51.402;0.016;2022-10-31T04:46:19;31.17;;;9.45;;
44578;SDS011;37422;51.402;0.016;2022-10-31T04:48:48;36.22;;;8.57;;
44578;SDS011;37422;51.402;0.016;2022-10-31T04:51:16;32.58;;;8.23;;
44578;SDS011;37422;51.402;0.016;2022-10-31T04:53:44;24.70;;;7.35;;
44578;SDS011;37422;51.402;0.016;2022-10-31T04:56:27;29.27;;;6.85;;
44578;SDS011;37422;51.402;0.016;2022-10-31T04:58:58;33.72;;;8.00;;
44578;SDS011;37422;51.402;0.016;2022-10-31T05:01:28;20.75;;;6.05;;
44578;SDS011;37422;51.402;0.016;2022-10-31T05:03:58;28.70;;;6.53;;
44578;SDS011;37422;51.402;0.016;2022-10-31T05:06:26;26.27;;;7.18;;
44578;SDS011;37422;51.402;0.016;2022-10-31T05:08:53;30.45;;;8.80;;
44578;SDS011;37422;51.402;0.016;2022-10-31T05:11:21;31.20;;;7.18;;
44578;SDS011;37422;51.402;0.016;2022-10-31T05:13:49;30.92;;;7.15;;
44578;SDS011;37422;51.402;0.016;2022-10-31T05:16:55;26.65;;;6.78;;
44578;SDS011;37422;51.402;0.016;2022-10-31T05:19:51;29.83;;;7.22;;
44578;SDS011;37422;51.402;0.016;2022-10-31T05:22:55;36.88;;;7.32;;
44578;SDS011;37422;51.402;0.016;2022-10-31T05:25:25;27.92;;;8.82;;
44578;SDS011;37422;51.402;0.016;2022-10-31T05:27:55;32.90;;;6.13;;
44578;SDS011;37422;51.402;0.016;2022-10-31T05:30:26;17.50;;;5.03;;
44578;SDS011;37422;51.402;0.016;2022-10-31T05:32:58;32.45;;;8.52;;
44578;SDS011;37422;51.402;0.016;2022-10-31T05:35:45;28.33;;;5.85;;
44578;SDS011;37422;51.402;0.016;2022-10-31T05:38:48;33.10;;;5.50;;
44578;SDS011;37422;51.402;0.016;2022-10-31T05:41:23;27.92;;;6.28;;
44578;SDS011;37422;51.402;0.016;2022-10-31T05:46:26;19.75;;;5.30;;
44578;SDS011;37422;51.402;0.016;2022-10-31T05:49:13;32.28;;;7.43;;
44578;SDS011;37422;51.402;0.016;2022-10-31T05:52:13;25.33;;;6.72;;
44578;SDS011;37422;51.402;0.016;2022-10-31T05:54:49;22.63;;;9.88;;
44578;SDS011;37422;51.402;0.016;2022-10-31T05:57:17;28.23;;;8.18;;
44578;SDS011;37422;51.402;0.016;2022-10-31T05:59:45;40.70;;;8.35;;
44578;SDS011;37422;51.402;0.016;2022-10-31T06:02:20;37.10;;;9.48;;
44578;SDS011;37422;51.402;0.016;2022-10-31T06:05:06;28.92;;;8.23;;
44578;SDS011;37422;51.402;0.016;2022-10-31T06:07:34;33.72;;;9.02;;
44578;SDS011;37422;51.402;0.016;2022-10-31T06:10:03;32.60;;;7.95;;
44578;SDS011;37422;51.402;0.016;2022-10-31T06:12:32;41.47;;;8.93;;
44578;SDS011;37422;51.402;0.016;2022-10-31T06:15:18;40.47;;;9.52;;
44578;SDS011;37422;51.402;0.016;2022-10-31T06:18:01;27.98;;;7.80;;
44578;SDS011;37422;51.402;0.016;2022-10-31T06:20:46;31.17;;;7.47;;
44578;SDS011;37422;51.402;0.016;2022-10-31T06:23:15;32.45;;;7.35;;
44578;SDS011;37422;51.402;0.016;2022-10-31T06:25:48;35.90;;;8.65;;
44578;SDS011;37422;51.402;0.016;2022-10-31T06:28:17;27.45;;;5.90;;
44578;SDS011;37422;51.402;0.016;2022-10-31T06:31:08;22.15;;;5.47;;
44578;SDS011;37422;51.402;0.016;2022-10-31T06:33:36;15.85;;;5.13;;
44578;SDS011;37422;51.402;0.016;2022-10-31T06:36:04;29.58;;;6.72;;
44578;SDS011;37422;51.402;0.016;2022-10-31T06:38:32;37.70;;;7.82;;
44578;SDS011;37422;51.402;0.016;2022-10-31T06:41:06;44.42;;;9.27;;
44578;SDS011;37422;51.402;0.016;2022-10-31T06:43:41;31.15;;;7.13;;
44578;SDS011;37422;51.402;0.016;2022-10-31T06:46:23;29.90;;;7.43;;
44578;SDS011;37422;51.402;0.016;2022-10-31T06:49:04;20.17;;;6.45;;
44578;SDS011;37422;51.402;0.016;2022-10-31T06:51:42;23.73;;;7.00;;
44578;SDS011;37422;51.402;0.016;2022-10-31T06:54:09;25.38;;;7.93;;
44578;SDS011;37422;51.402;0.016;2022-10-31T06:56:37;22.60;;;5.70;;
44578;SDS011;37422;51.402;0.016;2022-10-31T06:59:05;23.63;;;6.57;;
44578;SDS011;37422;51.402;0.016;2022-10-31T07:01:52;20.65;;;6.45;;
44578;SDS011;37422;51.402;0.016;2022-10-31T07:04:20;26.92;;;8.25;;
44578;SDS011;37422;51.402;0.016;2022-10-31T07:06:50;22.42;;;6.20;;
44578;SDS011;37422;51.402;0.016;2022-10-31T07:09:22;24.10;;;7.55;;
44578;SDS011;37422;51.402;0.016;2022-10-31T07:11:51;23.05;;;7.05;;
44578;SDS011;37422;51.402;0.016;2022-10-31T07:14:20;19.92;;;6.35;;
44578;SDS011;37422;51.402;0.016;2022-10-31T07:16:48;30.20;;;8.73;;
44578;SDS011;37422;51.402;0.016;2022-10-31T07:19:24;31.02;;;10.13;;
44578;SDS011;37422;51.402;0.016;2022-10-31T07:21:51;38.83;;;9.50;;
44578;SDS011;37422;51.402;0.016;2022-10-31T07:24:22;40.40;;;12.93;;
44578;SDS011;37422;51.402;0.016;2022-10-31T07:27:08;36.72;;;12.23;;
44578;SDS011;37422;51.402;0.016;2022-10-31T07:29:37;30.27;;;11.73;;
44578;SDS011;37422;51.402;0.016;2022-10-31T07:32:04;38.90;;;10.15;;
44578;SDS011;37422;51.402;0.016;2022-10-31T07:34:36;30.23;;;9.68;;
44578;SDS011;37422;51.402;0.016;2022-10-31T07:37:17;29.80;;;8.85;;
44578;SDS011;37422;51.402;0.016;2022-10-31T07:39:45;29.92;;;9.07;;
44578;SDS011;37422;51.402;0.016;2022-10-31T07:42:15;41.55;;;10.10;;
44578;SDS011;37422;51.402;0.016;2022-10-31T07:44:44;33.15;;;9.57;;
44578;SDS011;37422;51.402;0.016;2022-10-31T07:47:37;32.30;;;8.07;;
44578;SDS011;37422;51.402;0.016;2022-10-31T07:50:44;26.67;;;7.07;;
44578;SDS011;37422;51.402;0.016;2022-10-31T07:53:30;31.90;;;8.70;;
44578;SDS011;37422;51.402;0.016;2022-10-31T07:56:08;28.33;;;8.25;;
44578;SDS011;37422;51.402;0.016;2022-10-31T07:58:36;28.55;;;7.07;;
44578;SDS011;37422;51.402;0.016;2022-10-31T08:01:04;30.85;;;9.50;;
44578;SDS011;37422;51.402;0.016;2022-10-31T08:03:40;23.17;;;7.10;;
44578;SDS011;37422;51.402;0.016;2022-10-31T08:06:40;31.30;;;8.68;;
44578;SDS011;37422;51.402;0.016;2022-10-31T08:09:19;25.60;;;8.70;;
44578;SDS011;37422;51.402;0.016;2022-10-31T08:11:48;25.95;;;8.63;;
44578;SDS011;37422;51.402;0.016;2022-10-31T08:14:16;27.20;;;6.60;;
44578;SDS011;37422;51.402;0.016;2022-10-31T08:16:44;23.58;;;6.57;;
44578;SDS011;37422;51.402;0.016;2022-10-31T08:19:13;24.15;;;6.38;;
44578;SDS011;37422;51.402;0.016;2022-10-31T08:21:40;20.25;;;5.50;;
44578;SDS011;37422;51.402;0.016;2022-10-31T08:24:08;15.95;;;4.55;;
44578;SDS011;37422;51.402;0.016;2022-10-31T08:26:36;12.63;;;5.22;;
44578;SDS011;37422;51.402;0.016;2022-10-31T08:29:07;17.92;;;3.67;;
44578;SDS011;37422;51.402;0.016;2022-10-31T08:31:37;20.67;;;4.55;;
44578;SDS011;37422;51.402;0.016;2022-10-31T08:34:27;17.40;;;4.32;;
44578;SDS011;37422;51.402;0.016;2022-10-31T08:37:13;17.75;;;4.45;;
44578;SDS011;37422;51.402;0.016;2022-10-31T08:39:51;15.48;;;3.63;;
44578;SDS011;37422;51.402;0.016;2022-10-31T08:42:20;14.80;;;3.20;;
44578;SDS011;37422;51.402;0.016;2022-10-31T08:44:47;16.08;;;3.08;;
44578;SDS011;37422;51.402;0.016;2022-10-31T08:47:19;20.33;;;3.70;;
44578;SDS011;37422;51.402;0.016;2022-10-31T08:49:47;19.38;;;3.35;;
44578;SDS011;37422;51.402;0.016;2022-10-31T08:52:15;22.10;;;4.55;;
44578;SDS011;37422;51.402;0.016;2022-10-31T08:54:45;17.65;;;4.78;;
44578;SDS011;37422;51.402;0.016;2022-10-31T08:57:32;16.27;;;3.30;;
44578;SDS011;37422;51.402;0.016;2022-10-31T09:00:00;17.80;;;2.88;;
44578;SDS011;37422;51.402;0.016;2022-10-31T09:02:57;18.80;;;3.28;;
44578;SDS011;37422;51.402;0.016;2022-10-31T09:05:28;21.38;;;4.35;;
44578;SDS011;37422;51.402;0.016;2022-10-31T09:07:57;15.48;;;3.22;;
44578;SDS011;37422;51.402;0.016;2022-10-31T09:10:27;19.77;;;4.25;;
44578;SDS011;37422;51.402;0.016;2022-10-31T09:15:47;17.52;;;3.35;;
44578;SDS011;37422;51.402;0.016;2022-10-31T09:18:21;16.08;;;3.53;;
44578;SDS011;37422;51.402;0.016;2022-10-31T09:20:56;12.77;;;3.17;;
44578;SDS011;37422;51.402;0.016;2022-10-31T09:23:27;14.85;;;2.80;;
44578;SDS011;37422;51.402;0.016;2022-10-31T09:25:55;16.60;;;3.30;;
44578;SDS011;37422;51.402;0.016;2022-10-31T09:28:43;19.67;;;2.88;;
44578;SDS011;37422;51.402;0.016;2022-10-31T09:31:13;13.05;;;2.95;;
44578;SDS011;37422;51.402;0.016;2022-10-31T09:34:01;13.98;;;3.10;;
44578;SDS011;37422;51.402;0.016;2022-10-31T09:36:35;15.43;;;3.15;;
44578;SDS011;37422;51.402;0.016;2022-10-31T09:39:06;19.90;;;2.88;;
44578;SDS011;37422;51.402;0.016;2022-10-31T09:47:35;18.75;;;3.72;;
44578;SDS011;37422;51.402;0.016;2022-10-31T09:50:42;11.13;;;2.60;;
44578;SDS011;37422;51.402;0.016;2022-10-31T09:53:40;20.08;;;3.65;;
44578;SDS011;37422;51.402;0.016;2022-10-31T09:56:18;21.60;;;3.80;;
44578;SDS011;37422;51.402;0.016;2022-10-31T09:58:55;11.85;;;2.95;;
44578;SDS011;37422;51.402;0.016;2022-10-31T10:07:03;12.23;;;2.67;;
44578;SDS011;37422;51.402;0.016;2022-10-31T10:13:13;14.25;;;2.42;;
44578;SDS011;37422;51.402;0.016;2022-10-31T10:32:51;12.82;;;2.95;;
44578;SDS011;37422;51.402;0.016;2022-10-31T10:35:47;11.25;;;2.28;;
44578;SDS011;37422;51.402;0.016;2022-10-31T10:41:03;11.30;;;2.83;;
44578;SDS011;37422;51.402;0.016;2022-10-31T10:43:37;9.43;;;2.40;;
44578;SDS011;37422;51.402;0.016;2022-10-31T10:46:13;19.25;;;2.80;;
44578;SDS011;37422;51.402;0.016;2022-10-31T10:49:19;10.10;;;2.80;;
44578;SDS011;37422;51.402;0.016;2022-10-31T10:51:56;11.38;;;2.42;;
44578;SDS011;37422;51.402;0.016;2022-10-31T11:00:30;12.68;;;2.40;;
44578;SDS011;37422;51.402;0.016;2022-10-31T11:02:58;11.15;;;2.10;;
44578;SDS011;37422;51.402;0.016;2022-10-31T11:05:36;13.95;;;2.67;;
44578;SDS011;37422;51.402;0.016;2022-10-31T11:08:28;14.93;;;2.60;;
44578;SDS011;37422;51.402;0.016;2022-10-31T11:11:01;9.65;;;2.70;;
44578;SDS011;37422;51.402;0.016;2022-10-31T11:13:37;11.70;;;2.97;;
44578;SDS011;37422;51.402;0.016;2022-10-31T11:16:10;12.15;;;2.97;;
44578;SDS011;37422;51.402;0.016;2022-10-31T11:18:53;9.23;;;2.42;;
44578;SDS011;37422;51.402;0.016;2022-10-31T11:21:32;12.35;;;2.85;;
44578;SDS011;37422;51.402;0.016;2022-10-31T11:26:38;16.38;;;5.05;;
44578;SDS011;37422;51.402;0.016;2022-10-31T11:29:15;9.15;;;1.60;;
44578;SDS011;37422;51.402;0.016;2022-10-31T11:31:52;8.93;;;2.30;;
44578;SDS011;37422;51.402;0.016;2022-10-31T11:34:32;8.05;;;2.35;;
44578;SDS011;37422;51.402;0.016;2022-10-31T11:37:14;7.03;;;1.90;;
44578;SDS011;37422;51.402;0.016;2022-10-31T11:39:44;9.15;;;2.38;;
44578;SDS011;37422;51.402;0.016;2022-10-31T11:42:21;11.75;;;2.20;;
44578;SDS011;37422;51.402;0.016;2022-10-31T11:47:26;8.57;;;1.77;;
44578;SDS011;37422;51.402;0.016;2022-10-31T11:50:01;9.02;;;1.88;;
44578;SDS011;37422;51.402;0.016;2022-10-31T11:52:37;6.43;;;1.90;;
44578;SDS011;37422;51.402;0.016;2022-10-31T11:57:43;9.70;;;1.83;;
44578;SDS011;37422;51.402;0.016;2022-10-31T12:00:26;7.75;;;1.90;;
44578;SDS011;37422;51.402;0.016;2022-10-31T12:05:56;6.00;;;1.40;;
44578;SDS011;37422;51.402;0.016;2022-10-31T12:08:30;5.88;;;1.55;;
44578;SDS011;37422;51.402;0.016;2022-10-31T12:11:03;9.77;;;2.08;;
44578;SDS011;37422;51.402;0.016;2022-10-31T12:13:37;11.02;;;2.55;;
44578;SDS011;37422;51.402;0.016;2022-10-31T12:16:17;10.35;;;1.50;;
44578;SDS011;37422;51.402;0.016;2022-10-31T12:19:06;12.27;;;3.20;;
44578;SDS011;37422;51.402;0.016;2022-10-31T12:28:00;8.60;;;1.88;;
44578;SDS011;37422;51.402;0.016;2022-10-31T12:44:10;9.60;;;1.90;;
44578;SDS011;37422;51.402;0.016;2022-10-31T12:55:02;5.50;;;1.85;;
44578;SDS011;37422;51.402;0.016;2022-10-31T13:00:30;5.80;;;2.53;;
44578;SDS011;37422;51.402;0.016;2022-10-31T13:03:08;8.03;;;2.43;;
44578;SDS011;37422;51.402;0.016;2022-10-31T13:05:54;7.28;;;2.00;;
44578;SDS011;37422;51.402;0.016;2022-10-31T13:08:28;6.70;;;2.33;;
44578;SDS011;37422;51.402;0.016;2022-10-31T13:11:15;8.98;;;1.95;;
44578;SDS011;37422;51.402;0.016;2022-10-31T13:14:03;9.25;;;2.20;;
44578;SDS011;37422;51.402;0.016;2022-10-31T13:16:37;9.40;;;2.47;;
44578;SDS011;37422;51.402;0.016;2022-10-31T13:27:20;10.13;;;3.40;;
44578;SDS011;37422;51.402;0.016;2022-10-31T13:29:56;13.23;;;3.42;;
44578;SDS011;37422;51.402;0.016;2022-10-31T13:32:42;12.60;;;2.78;;
44578;SDS011;37422;51.402;0.016;2022-10-31T13:41:00;12.52;;;2.40;;
44578;SDS011;37422;51.402;0.016;2022-10-31T13:46:25;9.77;;;2.40;;
44578;SDS011;37422;51.402;0.016;2022-10-31T13:49:01;7.90;;;2.03;;
44578;SDS011;37422;51.402;0.016;2022-10-31T13:51:31;7.07;;;2.22;;
44578;SDS011;37422;51.402;0.016;2022-10-31T13:54:05;12.50;;;1.95;;
44578;SDS011;37422;51.402;0.016;2022-10-31T13:56:50;9.95;;;2.33;;
44578;SDS011;37422;51.402;0.016;2022-10-31T13:59:21;7.80;;;1.83;;
44578;SDS011;37422;51.402;0.016;2022-10-31T14:01:57;12.68;;;3.65;;
44578;SDS011;37422;51.402;0.016;2022-10-31T14:04:38;10.15;;;2.65;;
44578;SDS011;37422;51.402;0.016;2022-10-31T14:07:19;9.23;;;2.53;;
44578;SDS011;37422;51.402;0.016;2022-10-31T14:09:54;8.57;;;2.55;;
44578;SDS011;37422;51.402;0.016;2022-10-31T14:12:42;12.05;;;2.45;;
44578;SDS011;37422;51.402;0.016;2022-10-31T14:17:44;9.77;;;2.58;;
44578;SDS011;37422;51.402;0.016;2022-10-31T14:22:43;3.75;;;1.63;;
44578;SDS011;37422;51.402;0.016;2022-10-31T14:28:19;10.07;;;3.88;;
44578;SDS011;37422;51.402;0.016;2022-10-31T14:30:57;7.57;;;3.00;;
44578;SDS011;37422;51.402;0.016;2022-10-31T14:33:26;6.93;;;2.30;;
44578;SDS011;37422;51.402;0.016;2022-10-31T14:39:03;14.20;;;2.85;;
44578;SDS011;37422;51.402;0.016;2022-10-31T14:41:55;8.30;;;2.28;;
44578;SDS011;37422;51.402;0.016;2022-10-31T14:53:13;15.25;;;3.08;;
44578;SDS011;37422;51.402;0.016;2022-10-31T14:55:47;8.15;;;2.70;;
44578;SDS011;37422;51.402;0.016;2022-10-31T14:58:20;9.48;;;2.65;;
44578;SDS011;37422;51.402;0.016;2022-10-31T15:00:52;12.40;;;2.50;;
44578;SDS011;37422;51.402;0.016;2022-10-31T15:03:33;7.97;;;2.78;;
44578;SDS011;37422;51.402;0.016;2022-10-31T15:06:11;12.65;;;3.80;;
44578;SDS011;37422;51.402;0.016;2022-10-31T15:08:46;9.27;;;2.67;;
44578;SDS011;37422;51.402;0.016;2022-10-31T15:11:17;10.40;;;2.38;;
44578;SDS011;37422;51.402;0.016;2022-10-31T15:13:53;9.90;;;2.83;;
44578;SDS011;37422;51.402;0.016;2022-10-31T15:16:35;12.20;;;2.80;;
44578;SDS011;37422;51.402;0.016;2022-10-31T15:19:06;13.13;;;3.00;;
44578;SDS011;37422;51.402;0.016;2022-10-31T15:21:40;11.35;;;2.80;;
44578;SDS011;37422;51.402;0.016;2022-10-31T15:24:12;13.50;;;3.10;;
44578;SDS011;37422;51.402;0.016;2022-10-31T15:26:46;13.43;;;2.90;;
44578;SDS011;37422;51.402;0.016;2022-10-31T15:29:16;14.70;;;2.78;;
44578;SDS011;37422;51.402;0.016;2022-10-31T15:36:55;13.15;;;3.42;;
44578;SDS011;37422;51.402;0.016;2022-10-31T15:39:22;7.25;;;2.72;;
44578;SDS011;37422;51.402;0.016;2022-10-31T15:41:51;9.35;;;2.97;;
44578;SDS011;37422;51.402;0.016;2022-10-31T15:44:23;9.80;;;2.90;;
44578;SDS011;37422;51.402;0.016;2022-10-31T15:47:05;11.20;;;3.10;;
44578;SDS011;37422;51.402;0.016;2022-10-31T15:49:52;10.77;;;3.10;;
44578;SDS011;37422;51.402;0.016;2022-10-31T15:55:15;13.45;;;4.28;;
44578;SDS011;37422;51.402;0.016;2022-10-31T15:57:50;16.40;;;5.03;;
44578;SDS011;37422;51.402;0.016;2022-10-31T16:00:27;17.30;;;5.03;;
44578;SDS011;37422;51.402;0.016;2022-10-31T16:06:04;10.10;;;2.92;;
44578;SDS011;37422;51.402;0.016;2022-10-31T16:10:57;12.98;;;4.43;;
44578;SDS011;37422;51.402;0.016;2022-10-31T16:13:39;12.13;;;4.25;;
44578;SDS011;37422;51.402;0.016;2022-10-31T16:16:28;11.35;;;3.70;;
44578;SDS011;37422;51.402;0.016;2022-10-31T16:19:03;14.07;;;4.10;;
44578;SDS011;37422;51.402;0.016;2022-10-31T16:21:36;13.73;;;4.20;;
44578;SDS011;37422;51.402;0.016;2022-10-31T16:24:12;15.02;;;3.67;;
44578;SDS011;37422;51.402;0.016;2022-10-31T16:26:54;13.25;;;3.28;;
44578;SDS011;37422;51.402;0.016;2022-10-31T16:32:25;11.02;;;3.55;;
44578;SDS011;37422;51.402;0.016;2022-10-31T16:35:27;10.35;;;3.80;;
44578;SDS011;37422;51.402;0.016;2022-10-31T16:37:54;9.43;;;3.70;;
44578;SDS011;37422;51.402;0.016;2022-10-31T16:40:22;21.40;;;5.25;;
44578;SDS011;37422;51.402;0.016;2022-10-31T16:42:50;13.43;;;4.25;;
44578;SDS011;37422;51.402;0.016;2022-10-31T16:45:19;17.38;;;5.10;;
44578;SDS011;37422;51.402;0.016;2022-10-31T16:47:48;15.00;;;4.43;;
44578;SDS011;37422;51.402;0.016;2022-10-31T16:50:19;13.13;;;4.72;;
44578;SDS011;37422;51.402;0.016;2022-10-31T16:52:50;16.52;;;4.68;;
44578;SDS011;37422;51.402;0.016;2022-10-31T16:55:50;11.30;;;4.90;;
44578;SDS011;37422;51.402;0.016;2022-10-31T16:58:26;19.83;;;7.03;;
44578;SDS011;37422;51.402;0.016;2022-10-31T17:00:56;16.58;;;5.57;;
44578;SDS011;37422;51.402;0.016;2022-10-31T17:03:25;19.88;;;5.05;;
44578;SDS011;37422;51.402;0.016;2022-10-31T17:05:54;14.60;;;5.50;;
44578;SDS011;37422;51.402;0.016;2022-10-31T17:08:22;15.10;;;4.60;;
44578;SDS011;37422;51.402;0.016;2022-10-31T17:10:51;10.05;;;4.10;;
44578;SDS011;37422;51.402;0.016;2022-10-31T17:13:25;13.30;;;5.75;;
44578;SDS011;37422;51.402;0.016;2022-10-31T17:15:57;11.00;;;4.63;;
44578;SDS011;37422;51.402;0.016;2022-10-31T17:20:54;14.75;;;5.72;;
44578;SDS011;37422;51.402;0.016;2022-10-31T17:23:26;19.33;;;7.10;;
44578;SDS011;37422;51.402;0.016;2022-10-31T17:25:55;17.35;;;7.93;;
44578;SDS011;37422;51.402;0.016;2022-10-31T17:28:23;17.80;;;6.80;;
44578;SDS011;37422;51.402;0.016;2022-10-31T17:30:53;12.77;;;6.93;;
44578;SDS011;37422;51.402;0.016;2022-10-31T17:33:23;22.45;;;7.70;;
44578;SDS011;37422;51.402;0.016;2022-10-31T17:35:51;21.38;;;7.78;;
44578;SDS011;37422;51.402;0.016;2022-10-31T17:38:20;20.85;;;9.02;;
44578;SDS011;37422;51.402;0.016;2022-10-31T17:40:48;22.83;;;9.48;;
44578;SDS011;37422;51.402;0.016;2022-10-31T17:43:16;24.13;;;10.90;;
44578;SDS011;37422;51.402;0.016;2022-10-31T17:45:44;27.92;;;9.88;;
44578;SDS011;37422;51.402;0.016;2022-10-31T17:48:12;26.13;;;11.15;;
44578;SDS011;37422;51.402;0.016;2022-10-31T17:50:40;24.25;;;10.60;;
44578;SDS011;37422;51.402;0.016;2022-10-31T17:53:07;22.13;;;11.23;;
44578;SDS011;37422;51.402;0.016;2022-10-31T17:55:35;19.17;;;10.77;;
44578;SDS011;37422;51.402;0.016;2022-10-31T17:58:03;23.65;;;12.18;;
44578;SDS011;37422;51.402;0.016;2022-10-31T18:00:31;27.27;;;11.82;;
44578;SDS011;37422;51.402;0.016;2022-10-31T18:03:00;25.88;;;12.90;;
44578;SDS011;37422;51.402;0.016;2022-10-31T18:05:31;28.15;;;12.45;;
44578;SDS011;37422;51.402;0.016;2022-10-31T18:07:59;26.50;;;13.57;;